Time;durP1;ratioP1;P1;durP2;ratioP2;P2;SDS_P1;SDS_P2;PMS_P1;PMS_P2;Temp;Humidity;BMP_temperature;BMP_pressure;BME280_temperature;BME280_humidity;BME280_pressure;Samples;Min_cycle;Max_cycle;Signal;HPM_P1;HPM_P2
2023/08/29 00:00:18;;;;;;;1.47;1.37;;;20.70;79.40;;;;;;5028292;28;20584;-49
2023/08/29 00:02:48;;;;;;;1.93;1.17;;;20.70;79.40;;;;;;5036407;28;20439;-51
2023/08/29 00:05:18;;;;;;;1.33;1.23;;;20.70;78.80;;;;;;5026118;28;20475;-49
2023/08/29 00:07:47;;;;;;;1.30;0.90;;;20.70;78.00;;;;;;5034542;28;20627;-50
2023/08/29 00:10:15;;;;;;;1.80;1.10;;;20.70;78.00;;;;;;5038100;28;20489;-51
2023/08/29 00:12:44;;;;;;;1.20;1.10;;;20.70;78.10;;;;;;5034975;28;20877;-51
2023/08/29 00:15:12;;;;;;;1.40;0.97;;;20.70;78.00;;;;;;5034036;28;20480;-51
2023/08/29 00:17:41;;;;;;;1.10;0.97;;;20.70;78.00;;;;;;5022369;28;20808;-49
2023/08/29 00:20:10;;;;;;;1.77;1.37;;;20.70;78.00;;;;;;5035009;28;20840;-50
2023/08/29 00:22:40;;;;;;;1.10;0.90;;;20.70;78.00;;;;;;5054049;28;20467;-50
2023/08/29 00:25:09;;;;;;;1.37;1.27;;;20.70;78.00;;;;;;5043784;28;20471;-52
2023/08/29 00:27:38;;;;;;;1.50;1.27;;;20.70;77.90;;;;;;5045272;28;20543;-51
2023/08/29 00:30:07;;;;;;;1.43;1.30;;;20.70;77.80;;;;;;5032812;28;20522;-51
2023/08/29 00:32:36;;;;;;;1.37;1.20;;;20.70;77.80;;;;;;5030987;28;20455;-51
2023/08/29 00:35:05;;;;;;;1.87;1.30;;;20.70;77.80;;;;;;5038215;28;20515;-50
2023/08/29 00:37:34;;;;;;;1.43;1.33;;;20.70;77.80;;;;;;5037377;28;20509;-52
2023/08/29 00:40:04;;;;;;;2.37;1.40;;;20.70;77.80;;;;;;5038958;28;20561;-52
2023/08/29 00:42:33;;;;;;;1.90;1.23;;;20.70;77.80;;;;;;5044160;28;20498;-52
2023/08/29 00:45:01;;;;;;;2.13;1.27;;;20.70;77.80;;;;;;5040353;28;20467;-53
2023/08/29 00:47:30;;;;;;;1.47;1.30;;;20.70;77.60;;;;;;5041749;28;20460;-50
2023/08/29 00:49:59;;;;;;;1.20;1.07;;;20.70;77.60;;;;;;5031251;28;20478;-51
2023/08/29 00:52:27;;;;;;;1.60;1.20;;;20.70;77.80;;;;;;5028270;28;20448;-49
2023/08/29 00:54:56;;;;;;;1.50;1.33;;;20.70;77.80;;;;;;5040266;28;20473;-51
2023/08/29 00:57:29;;;;;;;1.50;1.27;;;20.60;77.80;;;;;;5044914;28;20471;-51
2023/08/29 00:59:57;;;;;;;1.73;1.20;;;20.70;77.80;;;;;;5036196;28;20482;-51
2023/08/29 01:02:26;;;;;;;1.63;1.40;;;20.60;77.90;;;;;;5043179;28;20506;-52
2023/08/29 01:04:54;;;;;;;1.50;1.30;;;20.60;77.90;;;;;;5041718;28;21051;-51
2023/08/29 01:07:23;;;;;;;1.40;1.30;;;20.60;77.80;;;;;;5039891;28;20463;-50
2023/08/29 01:09:51;;;;;;;1.30;1.00;;;20.70;78.10;;;;;;5044998;28;20435;-51
2023/08/29 01:12:20;;;;;;;1.10;1.00;;;20.60;77.90;;;;;;5033401;28;20443;-52
2023/08/29 01:14:55;;;;;;;1.33;1.23;;;20.60;78.00;;;;;;5041529;28;20483;-51
2023/08/29 01:17:29;;;;;;;1.67;1.27;;;20.60;78.00;;;;;;5037007;28;20474;-50
2023/08/29 01:19:59;;;;;;;1.23;0.97;;;20.60;78.00;;;;;;5044864;28;20816;-51
2023/08/29 01:22:37;;;;;;;1.87;1.40;;;20.60;78.10;;;;;;5033962;28;20534;-51
2023/08/29 01:25:13;;;;;;;2.00;1.80;;;20.60;78.00;;;;;;5042780;28;20462;-52
2023/08/29 01:27:43;;;;;;;2.03;1.10;;;20.60;78.20;;;;;;5039835;28;20477;-51
2023/08/29 01:30:13;;;;;;;1.00;0.90;;;20.60;78.30;;;;;;5031435;28;20464;-51
2023/08/29 01:32:41;;;;;;;1.80;1.40;;;20.60;78.10;;;;;;5047633;28;20423;-51
2023/08/29 01:35:14;;;;;;;1.80;1.20;;;20.60;78.20;;;;;;5036906;28;20465;-52
2023/08/29 01:37:42;;;;;;;1.70;1.10;;;20.60;78.30;;;;;;5048594;28;20473;-51
2023/08/29 01:40:11;;;;;;;1.67;1.10;;;20.60;78.40;;;;;;5039491;28;20465;-51
2023/08/29 01:42:44;;;;;;;1.47;1.20;;;20.60;78.30;;;;;;5039676;28;20794;-51
2023/08/29 01:45:12;;;;;;;1.40;1.20;;;20.60;78.40;;;;;;5031394;28;20555;-51
2023/08/29 01:47:42;;;;;;;1.97;1.77;;;20.60;78.40;;;;;;5031658;28;20864;-52
2023/08/29 01:50:14;;;;;;;1.70;1.30;;;20.60;78.20;;;;;;5044704;28;20467;-50
2023/08/29 01:52:42;;;;;;;1.83;1.60;;;20.60;78.40;;;;;;5044518;28;20420;-49
2023/08/29 01:55:13;;;;;;;1.03;0.87;;;20.60;78.40;;;;;;5043151;28;20520;-51
2023/08/29 01:57:45;;;;;;;1.30;1.10;;;20.60;78.30;;;;;;5043353;28;20458;-50
2023/08/29 02:00:14;;;;;;;1.10;0.90;;;20.60;78.50;;;;;;5013542;28;20479;-51
2023/08/29 02:02:43;;;;;;;1.50;1.40;;;20.60;78.80;;;;;;5029161;28;20440;-50
2023/08/29 02:05:12;;;;;;;1.33;1.10;;;20.60;78.80;;;;;;5029486;28;20996;-51
2023/08/29 02:07:40;;;;;;;1.50;1.00;;;20.60;78.80;;;;;;5027043;28;20452;-49
2023/08/29 02:10:10;;;;;;;1.97;1.30;;;20.60;78.80;;;;;;5027039;28;20468;-50
2023/08/29 02:12:39;;;;;;;1.60;1.40;;;20.60;78.80;;;;;;5027434;28;20812;-52
2023/08/29 02:15:11;;;;;;;1.43;1.30;;;20.60;78.70;;;;;;5026929;28;20474;-51
2023/08/29 02:17:40;;;;;;;1.40;1.20;;;20.60;78.90;;;;;;5027418;28;20835;-51
2023/08/29 02:20:09;;;;;;;1.30;1.20;;;20.60;78.90;;;;;;5026069;28;20740;-52
2023/08/29 02:22:38;;;;;;;1.30;1.03;;;20.60;78.70;;;;;;5026048;28;20538;-52
2023/08/29 02:25:07;;;;;;;1.23;1.00;;;20.50;78.60;;;;;;5027181;28;20475;-52
2023/08/29 02:27:36;;;;;;;1.30;1.20;;;20.60;78.80;;;;;;5026364;28;20478;-51
2023/08/29 02:30:06;;;;;;;1.20;0.90;;;20.50;78.80;;;;;;5026534;28;21002;-51
2023/08/29 02:32:37;;;;;;;1.20;0.90;;;20.60;78.90;;;;;;5010939;28;20448;-51
2023/08/29 02:35:07;;;;;;;1.50;1.10;;;20.60;79.00;;;;;;5025710;28;20463;-52
2023/08/29 02:37:35;;;;;;;1.10;1.00;;;20.50;78.70;;;;;;5025701;28;20466;-51
2023/08/29 02:40:06;;;;;;;1.93;1.20;;;20.50;78.80;;;;;;5022505;28;20435;-51
2023/08/29 02:42:35;;;;;;;1.40;1.10;;;20.60;78.90;;;;;;5026789;28;20475;-51
2023/08/29 02:45:04;;;;;;;1.30;1.10;;;20.50;78.90;;;;;;5025216;28;20567;-51
2023/08/29 02:47:32;;;;;;;1.40;1.07;;;20.50;78.90;;;;;;5010564;28;20466;-51
2023/08/29 02:50:03;;;;;;;1.50;1.30;;;20.50;78.90;;;;;;5027607;28;20444;-51
2023/08/29 02:52:32;;;;;;;1.13;1.00;;;20.50;79.50;;;;;;5026442;28;20502;-51
2023/08/29 02:55:00;;;;;;;1.50;1.20;;;20.50;79.00;;;;;;5010329;28;20444;-51
2023/08/29 02:57:29;;;;;;;1.50;1.27;;;20.50;79.00;;;;;;5010203;28;20464;-51
2023/08/29 02:59:57;;;;;;;1.60;1.23;;;20.50;79.00;;;;;;5025973;28;20508;-51
2023/08/29 03:02:26;;;;;;;1.83;1.20;;;20.50;79.10;;;;;;5026649;28;21110;-50
2023/08/29 03:04:55;;;;;;;1.10;0.90;;;20.50;79.10;;;;;;5025682;28;20532;-51
2023/08/29 03:07:26;;;;;;;1.50;1.40;;;20.50;79.00;;;;;;5026276;28;20463;-51
2023/08/29 03:09:55;;;;;;;1.63;1.33;;;20.50;79.00;;;;;;5027231;28;20887;-51
2023/08/29 03:12:24;;;;;;;1.43;1.33;;;20.50;79.00;;;;;;5030387;28;20479;-51
2023/08/29 03:14:55;;;;;;;1.20;1.00;;;20.50;79.10;;;;;;5029086;28;20474;-51
2023/08/29 03:17:25;;;;;;;1.20;1.03;;;20.50;79.10;;;;;;5044882;28;20471;-51
2023/08/29 03:19:54;;;;;;;1.30;1.13;;;20.50;79.10;;;;;;5029556;28;20492;-51
2023/08/29 03:22:22;;;;;;;1.60;1.20;;;20.50;78.90;;;;;;5027693;28;20953;-51
2023/08/29 03:24:52;;;;;;;2.00;1.30;;;20.50;79.00;;;;;;5028989;28;20455;-51
2023/08/29 03:27:22;;;;;;;1.57;1.40;;;20.50;79.00;;;;;;5014124;28;21000;-51
2023/08/29 03:29:52;;;;;;;1.50;1.10;;;20.50;79.00;;;;;;5013114;28;20479;-51
2023/08/29 03:32:21;;;;;;;1.80;1.60;;;20.40;78.90;;;;;;5030850;28;20475;-51
2023/08/29 03:34:54;;;;;;;1.20;1.00;;;20.50;78.90;;;;;;5029164;28;20460;-51
2023/08/29 03:37:22;;;;;;;1.20;1.00;;;20.40;79.00;;;;;;5028941;28;20479;-51
2023/08/29 03:39:55;;;;;;;1.10;1.00;;;20.40;79.10;;;;;;5030217;28;20460;-51
2023/08/29 03:42:24;;;;;;;1.37;1.00;;;20.40;79.00;;;;;;5013945;28;20451;-51
2023/08/29 03:44:52;;;;;;;2.13;1.40;;;20.40;79.10;;;;;;5028414;28;20763;-51
2023/08/29 03:47:21;;;;;;;1.60;1.20;;;20.40;79.10;;;;;;5030444;28;20467;-51
2023/08/29 03:49:49;;;;;;;2.70;1.30;;;20.40;79.10;;;;;;5029705;28;20547;-50
2023/08/29 03:52:23;;;;;;;1.60;1.30;;;20.40;79.10;;;;;;5028730;28;20451;-51
2023/08/29 03:54:54;;;;;;;1.47;1.30;;;20.40;79.10;;;;;;5025642;28;20486;-51
2023/08/29 03:57:24;;;;;;;1.50;1.30;;;20.40;79.10;;;;;;5030566;28;20471;-51
2023/08/29 03:59:52;;;;;;;2.37;2.00;;;20.40;79.20;;;;;;5029345;28;20499;-51
2023/08/29 04:02:21;;;;;;;1.53;1.20;;;20.40;79.10;;;;;;5031891;28;20455;-51
2023/08/29 04:04:52;;;;;;;1.63;1.23;;;20.40;79.10;;;;;;5028844;28;20477;-51
2023/08/29 04:07:21;;;;;;;1.60;1.10;;;20.40;79.10;;;;;;5028705;28;20479;-51
2023/08/29 04:09:50;;;;;;;2.00;1.17;;;20.40;79.00;;;;;;5029450;28;21022;-51
2023/08/29 04:12:20;;;;;;;1.40;1.20;;;20.40;79.00;;;;;;5029034;28;20476;-51
2023/08/29 04:14:48;;;;;;;1.53;1.43;;;20.40;79.10;;;;;;5029330;28;20510;-49
2023/08/29 04:17:17;;;;;;;1.40;1.20;;;20.40;79.00;;;;;;5028805;28;20526;-51
2023/08/29 04:19:47;;;;;;;1.50;1.37;;;20.40;79.10;;;;;;5029491;28;20472;-51
2023/08/29 04:22:16;;;;;;;1.33;1.20;;;20.40;79.00;;;;;;5028236;28;21003;-52
2023/08/29 04:24:45;;;;;;;1.50;1.30;;;20.30;79.10;;;;;;5029598;28;20448;-52
2023/08/29 04:27:14;;;;;;;1.53;1.30;;;20.30;79.10;;;;;;5029715;28;20980;-51
2023/08/29 04:29:44;;;;;;;2.10;1.80;;;20.30;79.20;;;;;;5011355;28;20483;-51
2023/08/29 04:32:13;;;;;;;2.43;1.60;;;20.40;79.20;;;;;;5029076;28;20478;-51
2023/08/29 04:34:42;;;;;;;1.70;1.23;;;20.40;79.10;;;;;;5028947;28;20439;-50
2023/08/29 04:37:11;;;;;;;1.77;1.33;;;20.30;79.10;;;;;;5028255;28;20861;-52
2023/08/29 04:39:39;;;;;;;1.40;1.10;;;20.40;79.40;;;;;;5029378;28;20493;-51
2023/08/29 04:42:08;;;;;;;1.40;1.20;;;20.30;79.00;;;;;;5029123;28;20457;-51
2023/08/29 04:44:37;;;;;;;1.40;1.10;;;20.30;79.10;;;;;;5022626;28;20955;-51
2023/08/29 04:47:07;;;;;;;1.37;1.27;;;20.30;79.10;;;;;;5029659;28;20444;-51
2023/08/29 04:49:35;;;;;;;1.30;1.20;;;20.30;79.10;;;;;;5029772;28;20495;-51
2023/08/29 04:52:04;;;;;;;1.30;1.03;;;20.30;79.30;;;;;;5026189;28;20455;-51
2023/08/29 04:54:33;;;;;;;1.40;1.30;;;20.30;79.30;;;;;;5029442;28;20871;-52
2023/08/29 04:57:04;;;;;;;1.67;1.50;;;20.30;79.30;;;;;;5028180;28;20460;-51
2023/08/29 04:59:32;;;;;;;1.50;1.33;;;20.30;79.40;;;;;;5029866;28;20801;-52
2023/08/29 05:02:01;;;;;;;2.17;1.17;;;20.30;79.20;;;;;;5029275;28;20447;-52
2023/08/29 05:04:31;;;;;;;2.57;2.27;;;20.30;79.10;;;;;;5028111;28;20838;-51
2023/08/29 05:07:00;;;;;;;1.40;1.10;;;20.30;79.10;;;;;;5030455;28;20965;-51
2023/08/29 05:09:28;;;;;;;1.60;1.20;;;20.30;79.30;;;;;;5029025;28;20440;-51
2023/08/29 05:11:57;;;;;;;1.67;1.30;;;20.30;79.20;;;;;;5029445;28;20861;-50
2023/08/29 05:14:25;;;;;;;1.50;1.30;;;20.30;79.10;;;;;;5021803;28;20821;-51
2023/08/29 05:16:54;;;;;;;1.80;1.40;;;20.30;79.30;;;;;;5028006;28;20455;-52
2023/08/29 05:19:23;;;;;;;1.40;1.23;;;20.30;79.40;;;;;;5028800;28;20806;-51
2023/08/29 05:21:53;;;;;;;2.10;1.40;;;20.20;79.10;;;;;;5026790;28;20498;-51
2023/08/29 05:24:22;;;;;;;1.13;1.03;;;20.20;79.30;;;;;;5029398;28;20551;-51
2023/08/29 05:26:50;;;;;;;2.00;1.80;;;20.30;79.60;;;;;;5029310;28;20479;-52
2023/08/29 05:29:19;;;;;;;1.90;1.70;;;20.30;79.50;;;;;;5009777;28;20466;-50
2023/08/29 05:31:47;;;;;;;2.40;2.20;;;20.20;79.40;;;;;;5043111;28;20510;-51
2023/08/29 05:34:16;;;;;;;1.80;1.57;;;20.20;79.30;;;;;;5029226;28;20442;-51
2023/08/29 05:36:46;;;;;;;1.83;1.57;;;20.20;79.40;;;;;;5022331;28;20842;-51
2023/08/29 05:39:16;;;;;;;2.20;2.00;;;20.20;79.30;;;;;;5027748;28;20474;-51
2023/08/29 05:41:45;;;;;;;2.80;1.73;;;20.20;79.20;;;;;;5029038;28;21008;-51
2023/08/29 05:44:13;;;;;;;1.93;1.73;;;20.20;79.30;;;;;;5028872;28;20463;-50
2023/08/29 05:46:42;;;;;;;2.17;1.97;;;20.20;79.20;;;;;;5027418;28;20597;-51
2023/08/29 05:49:10;;;;;;;3.00;2.70;;;20.20;79.30;;;;;;5027048;28;20794;-51
2023/08/29 05:51:39;;;;;;;2.97;1.60;;;20.20;79.30;;;;;;5027931;28;20451;-49
2023/08/29 05:54:07;;;;;;;1.93;1.73;;;20.20;79.40;;;;;;5012920;28;20634;-51
2023/08/29 05:56:38;;;;;;;2.60;2.40;;;20.20;79.40;;;;;;5028999;28;20443;-51
2023/08/29 05:59:06;;;;;;;2.10;1.50;;;20.20;79.40;;;;;;5028085;28;20455;-51
2023/08/29 06:01:36;;;;;;;3.07;2.60;;;20.20;79.20;;;;;;5027587;28;20562;-50
2023/08/29 06:04:05;;;;;;;4.53;4.10;;;20.20;79.20;;;;;;5027438;28;20428;-51
2023/08/29 06:06:33;;;;;;;2.93;2.23;;;20.20;79.20;;;;;;5025496;28;20534;-50
2023/08/29 06:09:02;;;;;;;3.97;2.90;;;20.20;79.30;;;;;;5028953;28;20459;-50
2023/08/29 06:11:30;;;;;;;2.30;1.60;;;20.20;79.20;;;;;;5028384;28;20458;-50
2023/08/29 06:14:00;;;;;;;4.93;3.30;;;20.20;79.40;;;;;;5023779;28;20449;-50
2023/08/29 06:16:29;;;;;;;2.50;2.27;;;20.20;79.30;;;;;;5025884;28;20477;-50
2023/08/29 06:18:58;;;;;;;3.80;3.07;;;20.20;79.40;;;;;;5028893;28;20506;-52
2023/08/29 06:21:26;;;;;;;4.73;2.70;;;20.20;79.40;;;;;;5026940;28;20502;-52
2023/08/29 06:23:55;;;;;;;3.80;3.50;;;20.20;79.30;;;;;;5027212;28;20431;-51
2023/08/29 06:26:23;;;;;;;4.50;2.60;;;20.10;79.30;;;;;;5028845;28;20451;-51
2023/08/29 06:28:52;;;;;;;2.53;2.30;;;20.20;79.30;;;;;;5025017;28;20437;-51
2023/08/29 06:31:22;;;;;;;6.20;4.97;;;20.20;79.50;;;;;;5027719;28;20456;-50
2023/08/29 06:33:50;;;;;;;5.13;3.70;;;20.20;79.30;;;;;;5027965;28;20448;-50
2023/08/29 06:36:19;;;;;;;6.93;6.17;;;20.10;79.40;;;;;;5010398;28;20504;-50
2023/08/29 06:38:48;;;;;;;9.00;5.63;;;20.10;79.30;;;;;;5028009;28;20995;-52
2023/08/29 06:41:16;;;;;;;5.30;4.80;;;20.10;79.30;;;;;;5027874;28;20458;-52
2023/08/29 06:43:46;;;;;;;7.30;5.97;;;20.10;79.40;;;;;;5029399;28;20474;-49
2023/08/29 06:46:15;;;;;;;8.37;7.03;;;20.10;79.40;;;;;;5031307;28;20478;-49
2023/08/29 06:48:45;;;;;;;4.23;3.80;;;20.10;79.40;;;;;;5032126;28;20494;-52
2023/08/29 06:51:13;;;;;;;6.90;5.10;;;20.10;79.50;;;;;;5029744;28;20586;-51
2023/08/29 06:53:42;;;;;;;7.43;5.70;;;20.10;79.90;;;;;;5032840;28;20437;-51
2023/08/29 06:56:10;;;;;;;2.97;2.67;;;20.10;80.00;;;;;;5031623;28;20474;-52
2023/08/29 06:58:39;;;;;;;3.20;2.90;;;20.10;80.00;;;;;;5029229;28;20484;-50
2023/08/29 07:01:07;;;;;;;5.13;4.63;;;20.10;79.90;;;;;;5027547;28;20503;-52
2023/08/29 07:03:36;;;;;;;3.37;3.07;;;20.10;79.90;;;;;;5031800;28;20443;-51
2023/08/29 07:06:06;;;;;;;3.50;3.17;;;20.10;79.80;;;;;;5029369;28;20499;-51
2023/08/29 07:08:35;;;;;;;5.87;3.23;;;20.10;80.70;;;;;;5032801;28;20484;-51
2023/08/29 07:11:03;;;;;;;4.60;3.87;;;20.10;84.20;;;;;;5031609;28;20474;-51
2023/08/29 07:13:32;;;;;;;4.07;3.63;;;20.10;85.20;;;;;;5029919;28;20727;-52
2023/08/29 07:16:00;;;;;;;4.13;3.40;;;20.00;86.10;;;;;;5030946;28;20488;-52
2023/08/29 07:18:29;;;;;;;6.93;5.97;;;20.00;87.20;;;;;;5032618;28;20474;-51
2023/08/29 07:20:58;;;;;;;8.93;7.77;;;20.00;87.60;;;;;;5030576;28;20989;-52
2023/08/29 07:23:29;;;;;;;5.80;4.43;;;20.00;82.30;;;;;;5034134;28;20461;-52
2023/08/29 07:25:59;;;;;;;6.93;6.27;;;20.00;82.10;;;;;;5013901;28;20456;-51
2023/08/29 07:28:28;;;;;;;4.73;4.10;;;20.00;82.00;;;;;;5030454;28;20478;-51
2023/08/29 07:30:57;;;;;;;3.77;3.47;;;20.00;82.10;;;;;;5048333;28;20467;-51
2023/08/29 07:33:26;;;;;;;6.43;5.82;;;20.00;82.30;;;;;;5052308;28;20440;-51
2023/08/29 07:35:55;;;;;;;8.30;7.43;;;20.00;69.50;;;;;;5050263;28;20265;-51
2023/08/29 07:38:23;;;;;;;4.97;4.47;;;20.00;69.60;;;;;;5052808;28;20560;-51
2023/08/29 07:40:53;;;;;;;9.50;7.50;;;20.00;69.50;;;;;;5050703;28;20493;-51
2023/08/29 07:43:22;;;;;;;9.37;8.40;;;20.00;69.50;;;;;;5052301;28;20419;-51
2023/08/29 07:45:53;;;;;;;6.10;5.50;;;20.00;69.70;;;;;;5048934;28;20507;-51
2023/08/29 07:48:21;;;;;;;8.30;7.50;;;20.00;69.50;;;;;;5052322;28;20468;-51
2023/08/29 07:50:50;;;;;;;5.40;4.90;;;20.00;69.60;;;;;;5057564;28;20481;-52
2023/08/29 07:53:18;;;;;;;4.73;4.30;;;20.00;69.60;;;;;;5051834;28;20477;-52
2023/08/29 07:55:47;;;;;;;4.90;4.40;;;20.00;69.60;;;;;;5049808;28;20550;-51
2023/08/29 07:58:17;;;;;;;8.67;7.60;;;19.90;69.50;;;;;;5051542;28;20579;-51
2023/08/29 08:00:47;;;;;;;8.43;7.40;;;19.90;69.70;;;;;;5044635;28;20473;-51
2023/08/29 08:03:16;;;;;;;8.63;7.73;;;19.90;69.80;;;;;;5050637;28;20434;-51
2023/08/29 08:05:45;;;;;;;9.03;7.93;;;19.90;69.80;;;;;;5049408;28;20809;-51
2023/08/29 08:08:14;;;;;;;8.47;7.00;;;19.90;69.80;;;;;;5052300;28;20504;-50
2023/08/29 08:10:43;;;;;;;7.47;6.77;;;19.90;69.90;;;;;;5049479;28;20556;-51
2023/08/29 08:13:12;;;;;;;6.90;6.23;;;19.90;69.80;;;;;;5049637;28;20512;-50
2023/08/29 08:15:42;;;;;;;5.57;5.07;;;19.90;70.00;;;;;;5065679;28;20482;-51
2023/08/29 08:18:10;;;;;;;6.90;6.20;;;19.90;69.90;;;;;;5032932;28;20464;-51
2023/08/29 08:20:39;;;;;;;5.60;5.00;;;19.90;70.00;;;;;;5047853;28;20796;-51
2023/08/29 08:23:07;;;;;;;5.47;4.77;;;19.90;70.00;;;;;;5049582;28;21030;-51
2023/08/29 08:25:36;;;;;;;8.87;7.97;;;19.90;70.00;;;;;;5049828;28;20467;-51
2023/08/29 08:28:06;;;;;;;6.60;5.63;;;19.90;71.30;;;;;;5049716;28;20468;-51
2023/08/29 08:30:37;;;;;;;6.30;5.67;;;19.90;70.00;;;;;;5048586;28;21077;-51
2023/08/29 08:33:07;;;;;;;9.10;8.17;;;19.80;70.10;;;;;;5052111;28;20454;-51
2023/08/29 08:35:36;;;;;;;6.40;5.50;;;19.90;70.20;;;;;;5046245;28;20857;-51
2023/08/29 08:38:15;;;;;;;4.93;4.50;;;19.90;70.10;;;;;;5051270;28;20468;-51
2023/08/29 08:40:43;;;;;;;4.43;4.03;;;19.90;70.30;;;;;;5047495;28;21007;-51
2023/08/29 08:43:14;;;;;;;6.30;5.70;;;19.90;70.20;;;;;;5049187;28;20478;-51
2023/08/29 08:45:43;;;;;;;5.43;4.93;;;19.90;70.40;;;;;;5044499;28;20804;-50
2023/08/29 08:48:14;;;;;;;5.87;5.00;;;19.90;70.30;;;;;;5050300;28;20468;-51
2023/08/29 08:50:44;;;;;;;5.00;4.50;;;19.90;70.20;;;;;;5046780;28;20539;-51
2023/08/29 08:53:15;;;;;;;5.50;5.00;;;19.80;70.00;;;;;;5049979;28;20438;-51
2023/08/29 08:55:43;;;;;;;5.27;4.07;;;19.90;70.10;;;;;;5048989;28;20470;-51
2023/08/29 08:58:12;;;;;;;7.33;6.57;;;19.90;70.10;;;;;;5049811;28;20463;-51
2023/08/29 09:00:40;;;;;;;5.87;4.93;;;19.90;70.10;;;;;;5063482;28;20490;-51
2023/08/29 09:03:09;;;;;;;5.90;5.30;;;19.90;70.00;;;;;;5049140;28;20529;-51
2023/08/29 09:05:39;;;;;;;5.00;4.30;;;19.90;70.00;;;;;;5049427;28;20482;-51
2023/08/29 09:08:08;;;;;;;3.90;3.60;;;19.90;70.00;;;;;;5047973;28;20606;-52
2023/08/29 09:10:39;;;;;;;4.53;4.13;;;19.90;69.80;;;;;;5050284;28;21014;-50
2023/08/29 09:13:14;;;;;;;4.07;3.67;;;19.90;69.80;;;;;;5044965;28;21033;-50
2023/08/29 09:15:43;;;;;;;4.33;3.93;;;19.90;69.90;;;;;;5049902;28;20526;-52
2023/08/29 09:18:13;;;;;;;4.57;4.17;;;19.90;69.90;;;;;;5049621;28;20461;-50
2023/08/29 09:20:44;;;;;;;4.70;4.30;;;19.90;69.80;;;;;;5045451;28;21022;-50
2023/08/29 09:23:23;;;;;;;3.70;3.40;;;19.90;69.80;;;;;;5050244;28;20448;-51
2023/08/29 09:25:55;;;;;;;3.77;3.47;;;19.90;69.80;;;;;;5048649;28;20467;-51
2023/08/29 09:28:27;;;;;;;4.40;4.00;;;19.90;69.90;;;;;;5047809;28;20474;-50
2023/08/29 09:30:57;;;;;;;5.07;4.10;;;19.90;69.80;;;;;;5041427;28;20490;-51
2023/08/29 09:33:25;;;;;;;4.20;3.80;;;19.90;69.80;;;;;;5049815;28;20438;-51
2023/08/29 09:35:56;;;;;;;4.80;4.30;;;19.90;69.90;;;;;;5041727;28;20486;-51
2023/08/29 09:38:29;;;;;;;4.13;3.73;;;19.90;69.80;;;;;;5051914;28;20464;-51
2023/08/29 09:40:57;;;;;;;4.63;4.03;;;19.90;69.80;;;;;;5063691;28;20459;-51
2023/08/29 09:43:28;;;;;;;5.03;4.53;;;19.90;69.80;;;;;;5051327;28;20442;-51
2023/08/29 09:45:57;;;;;;;4.60;4.20;;;19.90;69.90;;;;;;5047529;28;21011;-50
2023/08/29 09:48:29;;;;;;;4.80;4.40;;;19.90;69.80;;;;;;5050204;28;20818;-50
2023/08/29 09:51:00;;;;;;;4.13;3.73;;;19.90;69.80;;;;;;5048446;28;20557;-50
2023/08/29 09:53:30;;;;;;;4.73;4.13;;;19.90;69.90;;;;;;5051086;28;20430;-52
2023/08/29 09:56:07;;;;;;;4.40;3.80;;;19.90;69.90;;;;;;5048720;28;21039;-50
2023/08/29 09:58:38;;;;;;;4.80;4.20;;;19.90;69.80;;;;;;5050769;28;20992;-51
2023/08/29 10:01:10;;;;;;;3.67;3.30;;;19.90;69.80;;;;;;5048511;28;20475;-51
2023/08/29 10:03:42;;;;;;;3.93;3.53;;;19.90;69.70;;;;;;5048859;28;20437;-51
2023/08/29 10:06:16;;;;;;;4.07;3.77;;;19.90;69.80;;;;;;5048190;28;20479;-51
2023/08/29 10:08:47;;;;;;;4.00;3.70;;;19.90;69.90;;;;;;5048594;28;20545;-51
2023/08/29 10:11:15;;;;;;;4.03;3.63;;;19.90;69.80;;;;;;5049140;28;20463;-51
2023/08/29 10:13:45;;;;;;;4.23;3.83;;;19.90;69.90;;;;;;5062563;28;20450;-51
2023/08/29 10:16:15;;;;;;;3.60;3.10;;;19.90;69.80;;;;;;5045046;28;20493;-51
2023/08/29 10:18:47;;;;;;;4.03;3.47;;;19.90;69.90;;;;;;5048430;28;20464;-51
2023/08/29 10:21:21;;;;;;;3.70;3.40;;;19.90;69.80;;;;;;5042960;28;20475;-51
2023/08/29 10:23:50;;;;;;;5.07;4.50;;;19.90;69.80;;;;;;5049074;28;20526;-51
2023/08/29 10:26:20;;;;;;;3.80;3.50;;;19.90;69.90;;;;;;5046522;28;20492;-50
2023/08/29 10:28:51;;;;;;;4.10;3.67;;;19.90;69.90;;;;;;5049120;28;20507;-51
2023/08/29 10:31:20;;;;;;;4.33;3.90;;;19.90;69.90;;;;;;5045800;28;20467;-50
2023/08/29 10:33:49;;;;;;;4.07;3.60;;;19.90;69.90;;;;;;5047338;28;20439;-50
2023/08/29 10:36:19;;;;;;;4.13;3.73;;;19.90;69.90;;;;;;5043751;28;20481;-50
2023/08/29 10:38:48;;;;;;;3.50;3.20;;;19.90;69.90;;;;;;5048505;28;20460;-50
2023/08/29 10:41:17;;;;;;;4.00;3.50;;;19.90;69.80;;;;;;5049153;28;20474;-51
2023/08/29 10:43:46;;;;;;;2.80;2.60;;;19.90;69.80;;;;;;5045648;28;20446;-51
2023/08/29 10:46:16;;;;;;;4.13;3.73;;;19.90;69.80;;;;;;5046820;28;20479;-51
2023/08/29 10:48:55;;;;;;;3.73;3.43;;;19.90;69.80;;;;;;5048874;28;20491;-52
2023/08/29 10:51:26;;;;;;;3.90;3.40;;;19.90;69.90;;;;;;5048241;28;20470;-51
2023/08/29 10:53:57;;;;;;;4.00;2.87;;;19.90;69.80;;;;;;5042616;28;20478;-50
2023/08/29 10:56:39;;;;;;;3.20;2.90;;;19.90;69.80;;;;;;5047773;28;20461;-51
2023/08/29 10:59:27;;;;;;;4.07;3.67;;;19.90;69.70;;;;;;5048317;28;20467;-50
2023/08/29 11:02:24;;;;;;;3.20;2.90;;;19.90;69.80;;;;;;5046877;28;20473;-51
2023/08/29 11:04:52;;;;;;;3.03;2.67;;;19.90;69.90;;;;;;5047573;28;20556;-52
2023/08/29 11:07:26;;;;;;;2.63;2.43;;;19.90;69.90;;;;;;5047716;28;20550;-51
2023/08/29 11:10:20;;;;;;;3.33;2.87;;;19.90;69.90;;;;;;5049677;28;20450;-50
2023/08/29 11:13:09;;;;;;;3.77;3.30;;;19.90;69.90;;;;;;5048327;28;20446;-50
2023/08/29 11:16:14;;;;;;;3.33;3.03;;;19.80;69.70;;;;;;5049848;28;20594;-50
2023/08/29 11:18:42;;;;;;;3.70;3.40;;;19.90;69.80;;;;;;5048284;28;20463;-51
2023/08/29 11:21:11;;;;;;;3.80;3.30;;;19.90;69.80;;;;;;5043510;28;20469;-51
2023/08/29 11:23:43;;;;;;;3.40;3.10;;;19.90;69.90;;;;;;5046674;28;20429;-49
2023/08/29 11:26:12;;;;;;;2.90;2.70;;;19.90;69.90;;;;;;5047654;28;21027;-52
2023/08/29 11:28:42;;;;;;;3.37;3.07;;;19.90;69.90;;;;;;5049490;28;20495;-50
2023/08/29 11:31:12;;;;;;;3.37;3.07;;;19.90;69.80;;;;;;5049774;28;20511;-50
2023/08/29 11:33:40;;;;;;;2.70;2.40;;;19.90;69.80;;;;;;5053195;28;20514;-50
2023/08/29 11:36:09;;;;;;;2.83;2.60;;;19.90;69.80;;;;;;5049530;28;20514;-50
2023/08/29 11:38:38;;;;;;;4.00;2.93;;;19.90;69.90;;;;;;5052549;28;20468;-52
2023/08/29 11:41:08;;;;;;;4.00;3.10;;;19.90;69.70;;;;;;5050835;28;20473;-51
2023/08/29 11:43:57;;;;;;;2.87;2.40;;;19.90;69.70;;;;;;5080106;28;20965;-50
2023/08/29 11:46:46;;;;;;;3.23;2.93;;;19.90;69.80;;;;;;5048990;28;20467;-50
2023/08/29 11:49:16;;;;;;;2.70;2.50;;;19.90;69.80;;;;;;5052165;28;20438;-50
2023/08/29 11:51:45;;;;;;;3.90;3.53;;;19.90;69.70;;;;;;5050242;28;20518;-52
2023/08/29 11:54:41;;;;;;;3.50;3.10;;;19.90;69.70;;;;;;5050492;28;21015;-51
2023/08/29 11:57:14;;;;;;;3.10;2.67;;;19.90;69.70;;;;;;5036096;28;20891;-51
2023/08/29 11:59:43;;;;;;;3.43;3.13;;;19.90;69.70;;;;;;5049410;28;20458;-50
2023/08/29 12:02:12;;;;;;;3.43;2.60;;;19.90;69.70;;;;;;5052842;28;20461;-51
2023/08/29 12:04:46;;;;;;;3.17;2.87;;;19.90;69.70;;;;;;5051028;28;20517;-51
2023/08/29 12:07:16;;;;;;;3.00;2.63;;;19.90;69.80;;;;;;5050374;28;20496;-51
2023/08/29 12:09:46;;;;;;;3.90;3.17;;;19.90;69.60;;;;;;5049543;28;20508;-51
2023/08/29 12:12:30;;;;;;;3.00;2.60;;;19.90;69.60;;;;;;5052808;28;20518;-50
2023/08/29 12:14:59;;;;;;;3.57;2.87;;;19.90;69.60;;;;;;5048471;28;20538;-52
2023/08/29 12:17:38;;;;;;;2.77;2.57;;;19.90;69.70;;;;;;5049330;28;20997;-49
2023/08/29 12:20:26;;;;;;;2.70;2.50;;;19.90;69.70;;;;;;5050616;28;20467;-49
2023/08/29 12:22:55;;;;;;;2.90;2.70;;;19.90;69.70;;;;;;5025952;28;20532;-51
2023/08/29 12:25:24;;;;;;;2.50;2.30;;;19.90;69.70;;;;;;5050699;27;20561;-50
2023/08/29 12:27:54;;;;;;;3.63;2.90;;;19.90;69.70;;;;;;5048918;28;20482;-51
2023/08/29 12:30:23;;;;;;;5.18;3.80;;;19.90;69.40;;;;;;5066140;28;20483;-50
2023/08/29 12:32:51;;;;;;;2.87;2.60;;;19.90;69.20;;;;;;5052328;28;20192;-50
2023/08/29 12:35:20;;;;;;;4.37;3.63;;;19.90;69.40;;;;;;5047399;28;20867;-50
2023/08/29 12:37:49;;;;;;;3.07;2.63;;;19.90;69.50;;;;;;5051595;28;20529;-51
2023/08/29 12:40:18;;;;;;;5.30;2.63;;;19.90;69.50;;;;;;5050560;28;20478;-51
2023/08/29 12:42:49;;;;;;;3.40;2.60;;;19.90;69.70;;;;;;5048841;28;20434;-51
2023/08/29 12:45:19;;;;;;;3.17;2.87;;;19.90;69.80;;;;;;5048462;28;20459;-51
2023/08/29 12:47:49;;;;;;;4.67;2.63;;;19.90;69.70;;;;;;5051975;28;20451;-51
2023/08/29 12:50:18;;;;;;;2.57;2.37;;;19.90;69.80;;;;;;5046520;28;20496;-51
2023/08/29 12:52:46;;;;;;;3.47;2.50;;;19.90;70.00;;;;;;5064501;28;20446;-51
2023/08/29 12:55:15;;;;;;;5.73;3.17;;;19.90;70.00;;;;;;5048805;28;20490;-51
2023/08/29 12:57:44;;;;;;;3.13;2.50;;;19.90;70.00;;;;;;5049164;28;20469;-51
2023/08/29 13:00:14;;;;;;;2.77;2.40;;;19.90;70.00;;;;;;5043585;28;20972;-51
2023/08/29 13:02:44;;;;;;;2.50;2.00;;;19.90;70.00;;;;;;5052548;28;20469;-51